sensor_id;sensor_type;location;lat;lon;timestamp;temperature;humidity
1383;DHT22;685;47.196;11.880;2023-06-05T00:00:08;15.90;99.90
1383;DHT22;685;47.196;11.880;2023-06-05T00:02:35;15.90;99.90
1383;DHT22;685;47.196;11.880;2023-06-05T00:05:03;15.90;99.90
1383;DHT22;685;47.196;11.880;2023-06-05T00:07:34;15.90;99.90
1383;DHT22;685;47.196;11.880;2023-06-05T00:10:04;15.80;99.90
1383;DHT22;685;47.196;11.880;2023-06-05T00:12:32;15.80;99.90
1383;DHT22;685;47.196;11.880;2023-06-05T00:14:59;15.80;99.90
1383;DHT22;685;47.196;11.880;2023-06-05T00:17:27;15.80;99.90
1383;DHT22;685;47.196;11.880;2023-06-05T00:19:55;15.70;99.90
1383;DHT22;685;47.196;11.880;2023-06-05T00:22:24;15.70;99.90
1383;DHT22;685;47.196;11.880;2023-06-05T00:24:51;15.70;99.90
1383;DHT22;685;47.196;11.880;2023-06-05T00:27:18;15.60;99.90
1383;DHT22;685;47.196;11.880;2023-06-05T00:29:46;15.60;99.90
1383;DHT22;685;47.196;11.880;2023-06-05T00:32:13;15.50;99.90
1383;DHT22;685;47.196;11.880;2023-06-05T00:34:40;15.50;99.90
1383;DHT22;685;47.196;11.880;2023-06-05T00:37:07;15.60;99.90
1383;DHT22;685;47.196;11.880;2023-06-05T00:39:34;15.60;99.90
1383;DHT22;685;47.196;11.880;2023-06-05T00:42:01;15.60;99.90
1383;DHT22;685;47.196;11.880;2023-06-05T00:44:27;15.50;99.90
1383;DHT22;685;47.196;11.880;2023-06-05T00:46:56;15.50;99.90
1383;DHT22;685;47.196;11.880;2023-06-05T00:49:23;15.50;99.90
1383;DHT22;685;47.196;11.880;2023-06-05T00:51:51;15.40;99.90
1383;DHT22;685;47.196;11.880;2023-06-05T00:54:18;15.30;99.90
1383;DHT22;685;47.196;11.880;2023-06-05T00:56:46;15.20;99.90
1383;DHT22;685;47.196;11.880;2023-06-05T00:59:14;15.20;99.90
1383;DHT22;685;47.196;11.880;2023-06-05T01:01:42;15.20;99.90
1383;DHT22;685;47.196;11.880;2023-06-05T01:04:12;15.20;99.90
1383;DHT22;685;47.196;11.880;2023-06-05T01:06:39;15.30;99.90
1383;DHT22;685;47.196;11.880;2023-06-05T01:09:07;15.30;99.90
1383;DHT22;685;47.196;11.880;2023-06-05T01:11:40;15.30;99.90
1383;DHT22;685;47.196;11.880;2023-06-05T01:14:14;15.30;99.90
1383;DHT22;685;47.196;11.880;2023-06-05T01:16:49;15.30;99.90
1383;DHT22;685;47.196;11.880;2023-06-05T01:19:20;15.30;99.90
1383;DHT22;685;47.196;11.880;2023-06-05T01:21:50;15.30;99.90
1383;DHT22;685;47.196;11.880;2023-06-05T01:24:19;15.40;99.90
1383;DHT22;685;47.196;11.880;2023-06-05T01:26:56;15.30;99.90
1383;DHT22;685;47.196;11.880;2023-06-05T01:29:31;15.40;99.90
1383;DHT22;685;47.196;11.880;2023-06-05T01:32:04;15.40;99.90
1383;DHT22;685;47.196;11.880;2023-06-05T01:34:32;15.30;99.90
1383;DHT22;685;47.196;11.880;2023-06-05T01:37:02;15.30;99.90
1383;DHT22;685;47.196;11.880;2023-06-05T01:39:30;15.30;99.90
1383;DHT22;685;47.196;11.880;2023-06-05T01:41:58;15.30;99.90
1383;DHT22;685;47.196;11.880;2023-06-05T01:44:26;15.30;99.90
1383;DHT22;685;47.196;11.880;2023-06-05T01:46:53;15.30;99.90
1383;DHT22;685;47.196;11.880;2023-06-05T01:49:20;15.30;99.90
1383;DHT22;685;47.196;11.880;2023-06-05T01:51:48;15.30;99.90
1383;DHT22;685;47.196;11.880;2023-06-05T01:54:15;15.30;99.90
1383;DHT22;685;47.196;11.880;2023-06-05T01:56:45;15.20;99.90
1383;DHT22;685;47.196;11.880;2023-06-05T01:59:13;15.10;99.90
1383;DHT22;685;47.196;11.880;2023-06-05T02:01:41;14.90;99.90
1383;DHT22;685;47.196;11.880;2023-06-05T02:04:09;14.90;99.90
1383;DHT22;685;47.196;11.880;2023-06-05T02:06:37;15.00;99.90
1383;DHT22;685;47.196;11.880;2023-06-05T02:09:09;15.00;99.90
1383;DHT22;685;47.196;11.880;2023-06-05T02:11:38;15.00;99.90
1383;DHT22;685;47.196;11.880;2023-06-05T02:14:09;14.80;99.90
1383;DHT22;685;47.196;11.880;2023-06-05T02:16:39;14.90;99.90
1383;DHT22;685;47.196;11.880;2023-06-05T02:19:06;14.80;99.90
1383;DHT22;685;47.196;11.880;2023-06-05T02:21:33;14.80;99.90
1383;DHT22;685;47.196;11.880;2023-06-05T02:24:01;14.80;99.90
1383;DHT22;685;47.196;11.880;2023-06-05T02:26:28;14.80;99.90
1383;DHT22;685;47.196;11.880;2023-06-05T02:28:55;14.70;99.90
1383;DHT22;685;47.196;11.880;2023-06-05T02:31:24;14.70;99.90
1383;DHT22;685;47.196;11.880;2023-06-05T02:33:52;14.60;99.90
1383;DHT22;685;47.196;11.880;2023-06-05T02:36:19;14.70;99.90
1383;DHT22;685;47.196;11.880;2023-06-05T02:38:46;14.60;99.90
1383;DHT22;685;47.196;11.880;2023-06-05T02:41:15;14.70;99.90
1383;DHT22;685;47.196;11.880;2023-06-05T02:43:42;14.70;99.90
1383;DHT22;685;47.196;11.880;2023-06-05T02:46:10;14.70;99.90
1383;DHT22;685;47.196;11.880;2023-06-05T02:48:38;14.70;99.90
1383;DHT22;685;47.196;11.880;2023-06-05T02:51:05;14.80;99.90
1383;DHT22;685;47.196;11.880;2023-06-05T02:53:35;14.80;99.90
1383;DHT22;685;47.196;11.880;2023-06-05T02:56:02;14.80;99.90
1383;DHT22;685;47.196;11.880;2023-06-05T02:58:29;14.80;99.90
1383;DHT22;685;47.196;11.880;2023-06-05T03:00:57;14.80;99.90
1383;DHT22;685;47.196;11.880;2023-06-05T03:03:28;14.90;99.90
1383;DHT22;685;47.196;11.880;2023-06-05T03:05:57;14.80;99.90
1383;DHT22;685;47.196;11.880;2023-06-05T03:08:27;14.80;99.90
1383;DHT22;685;47.196;11.880;2023-06-05T03:10:54;14.70;99.90
1383;DHT22;685;47.196;11.880;2023-06-05T03:13:21;14.60;99.90
1383;DHT22;685;47.196;11.880;2023-06-05T03:15:48;14.40;99.90
1383;DHT22;685;47.196;11.880;2023-06-05T03:18:18;14.40;99.90
1383;DHT22;685;47.196;11.880;2023-06-05T03:20:46;14.40;99.90
1383;DHT22;685;47.196;11.880;2023-06-05T03:23:14;14.40;99.90
1383;DHT22;685;47.196;11.880;2023-06-05T03:25:42;14.40;99.90
1383;DHT22;685;47.196;11.880;2023-06-05T03:28:09;14.40;99.90
1383;DHT22;685;47.196;11.880;2023-06-05T03:30:35;14.40;99.90
1383;DHT22;685;47.196;11.880;2023-06-05T03:33:02;14.40;99.90
1383;DHT22;685;47.196;11.880;2023-06-05T03:35:29;14.50;99.90
1383;DHT22;685;47.196;11.880;2023-06-05T03:37:58;14.50;99.90
1383;DHT22;685;47.196;11.880;2023-06-05T03:40:26;14.50;99.90
1383;DHT22;685;47.196;11.880;2023-06-05T03:42:53;14.50;99.90
1383;DHT22;685;47.196;11.880;2023-06-05T03:45:20;14.50;99.90
1383;DHT22;685;47.196;11.880;2023-06-05T03:47:47;14.50;99.90
1383;DHT22;685;47.196;11.880;2023-06-05T03:50:15;14.60;99.90
1383;DHT22;685;47.196;11.880;2023-06-05T03:52:42;14.60;99.90
1383;DHT22;685;47.196;11.880;2023-06-05T03:55:09;14.60;99.90
1383;DHT22;685;47.196;11.880;2023-06-05T03:57:38;14.70;99.90
1383;DHT22;685;47.196;11.880;2023-06-05T04:00:07;14.80;99.90
1383;DHT22;685;47.196;11.880;2023-06-05T04:02:36;14.80;99.90
1383;DHT22;685;47.196;11.880;2023-06-05T04:05:04;14.80;99.90
1383;DHT22;685;47.196;11.880;2023-06-05T04:07:31;14.80;99.90
1383;DHT22;685;47.196;11.880;2023-06-05T04:09:58;14.70;99.90
1383;DHT22;685;47.196;11.880;2023-06-05T04:12:25;14.70;99.90
1383;DHT22;685;47.196;11.880;2023-06-05T04:14:53;14.70;99.90
1383;DHT22;685;47.196;11.880;2023-06-05T04:17:20;14.80;99.90
1383;DHT22;685;47.196;11.880;2023-06-05T04:19:47;14.90;99.90
1383;DHT22;685;47.196;11.880;2023-06-05T04:22:14;14.90;99.90
1383;DHT22;685;47.196;11.880;2023-06-05T04:24:41;14.90;99.90
1383;DHT22;685;47.196;11.880;2023-06-05T04:27:08;14.90;99.90
1383;DHT22;685;47.196;11.880;2023-06-05T04:29:35;14.80;99.90
1383;DHT22;685;47.196;11.880;2023-06-05T04:32:04;14.80;99.90
1383;DHT22;685;47.196;11.880;2023-06-05T04:34:33;14.70;99.90
1383;DHT22;685;47.196;11.880;2023-06-05T04:36:59;14.70;99.90
1383;DHT22;685;47.196;11.880;2023-06-05T04:39:27;14.80;99.90
1383;DHT22;685;47.196;11.880;2023-06-05T04:41:54;14.80;99.90
1383;DHT22;685;47.196;11.880;2023-06-05T04:44:21;14.90;99.90
1383;DHT22;685;47.196;11.880;2023-06-05T04:46:48;15.00;99.90
1383;DHT22;685;47.196;11.880;2023-06-05T04:49:18;15.00;99.90
1383;DHT22;685;47.196;11.880;2023-06-05T04:51:45;14.90;99.90
1383;DHT22;685;47.196;11.880;2023-06-05T04:54:12;14.90;99.90
1383;DHT22;685;47.196;11.880;2023-06-05T04:56:39;14.90;99.90
1383;DHT22;685;47.196;11.880;2023-06-05T04:59:06;14.90;99.90
1383;DHT22;685;47.196;11.880;2023-06-05T05:01:33;14.90;99.90
1383;DHT22;685;47.196;11.880;2023-06-05T05:04:00;14.90;99.90
1383;DHT22;685;47.196;11.880;2023-06-05T05:06:28;15.00;99.90
1383;DHT22;685;47.196;11.880;2023-06-05T05:08:56;15.00;99.90
1383;DHT22;685;47.196;11.880;2023-06-05T05:11:23;15.00;99.90
1383;DHT22;685;47.196;11.880;2023-06-05T05:13:51;15.00;99.90
1383;DHT22;685;47.196;11.880;2023-06-05T05:16:18;14.90;99.90
1383;DHT22;685;47.196;11.880;2023-06-05T05:18:46;15.00;99.90
1383;DHT22;685;47.196;11.880;2023-06-05T05:21:13;15.10;99.90
1383;DHT22;685;47.196;11.880;2023-06-05T05:23:41;15.20;99.90
1383;DHT22;685;47.196;11.880;2023-06-05T05:26:10;15.10;99.90
1383;DHT22;685;47.196;11.880;2023-06-05T05:28:36;15.10;99.90
1383;DHT22;685;47.196;11.880;2023-06-05T05:31:03;15.20;99.90
1383;DHT22;685;47.196;11.880;2023-06-05T05:35:57;15.30;99.90
1383;DHT22;685;47.196;11.880;2023-06-05T05:38:24;15.30;99.90
1383;DHT22;685;47.196;11.880;2023-06-05T05:40:53;15.40;99.90
1383;DHT22;685;47.196;11.880;2023-06-05T05:43:19;15.40;99.90
1383;DHT22;685;47.196;11.880;2023-06-05T05:45:47;15.40;99.90
1383;DHT22;685;47.196;11.880;2023-06-05T05:48:13;15.50;99.90
1383;DHT22;685;47.196;11.880;2023-06-05T05:50:40;15.40;99.90
1383;DHT22;685;47.196;11.880;2023-06-05T05:53:07;15.50;99.90
1383;DHT22;685;47.196;11.880;2023-06-05T05:55:34;15.50;99.90
1383;DHT22;685;47.196;11.880;2023-06-05T05:58:02;15.50;99.90
1383;DHT22;685;47.196;11.880;2023-06-05T06:00:30;15.40;99.90
1383;DHT22;685;47.196;11.880;2023-06-05T06:02:57;15.50;99.90
1383;DHT22;685;47.196;11.880;2023-06-05T06:05:24;15.40;99.90
1383;DHT22;685;47.196;11.880;2023-06-05T06:07:51;15.50;99.90
1383;DHT22;685;47.196;11.880;2023-06-05T06:10:18;15.40;99.90
1383;DHT22;685;47.196;11.880;2023-06-05T06:12:46;15.40;99.90
1383;DHT22;685;47.196;11.880;2023-06-05T06:15:14;15.40;99.90
1383;DHT22;685;47.196;11.880;2023-06-05T06:17:41;15.40;99.90
1383;DHT22;685;47.196;11.880;2023-06-05T06:20:09;15.40;99.90
1383;DHT22;685;47.196;11.880;2023-06-05T06:22:38;15.40;99.90
1383;DHT22;685;47.196;11.880;2023-06-05T06:25:06;15.40;99.90
1383;DHT22;685;47.196;11.880;2023-06-05T06:27:33;15.40;99.90
1383;DHT22;685;47.196;11.880;2023-06-05T06:30:00;15.40;99.90
1383;DHT22;685;47.196;11.880;2023-06-05T06:32:29;15.40;99.90
1383;DHT22;685;47.196;11.880;2023-06-05T06:34:56;15.40;99.90
1383;DHT22;685;47.196;11.880;2023-06-05T06:37:23;15.40;99.90
1383;DHT22;685;47.196;11.880;2023-06-05T06:39:50;15.40;99.90
1383;DHT22;685;47.196;11.880;2023-06-05T06:42:18;15.40;99.90
1383;DHT22;685;47.196;11.880;2023-06-05T06:44:45;15.50;99.90
1383;DHT22;685;47.196;11.880;2023-06-05T06:47:12;15.50;99.90
1383;DHT22;685;47.196;11.880;2023-06-05T06:49:40;15.50;99.90
1383;DHT22;685;47.196;11.880;2023-06-05T06:52:07;15.60;99.90
1383;DHT22;685;47.196;11.880;2023-06-05T06:54:34;15.60;99.90
1383;DHT22;685;47.196;11.880;2023-06-05T06:57:01;15.60;99.90
1383;DHT22;685;47.196;11.880;2023-06-05T06:59:27;15.60;99.90
1383;DHT22;685;47.196;11.880;2023-06-05T07:02:19;15.60;99.90
1383;DHT22;685;47.196;11.880;2023-06-05T07:04:47;15.70;99.90
1383;DHT22;685;47.196;11.880;2023-06-05T07:07:16;15.90;99.90
1383;DHT22;685;47.196;11.880;2023-06-05T07:09:44;16.00;99.90
1383;DHT22;685;47.196;11.880;2023-06-05T07:12:13;16.00;99.90
1383;DHT22;685;47.196;11.880;2023-06-05T07:14:41;16.10;99.90
1383;DHT22;685;47.196;11.880;2023-06-05T07:17:08;16.10;99.90
1383;DHT22;685;47.196;11.880;2023-06-05T07:19:35;16.10;99.90
1383;DHT22;685;47.196;11.880;2023-06-05T07:22:04;16.20;99.90
1383;DHT22;685;47.196;11.880;2023-06-05T07:24:32;16.30;99.90
1383;DHT22;685;47.196;11.880;2023-06-05T07:27:01;16.30;99.90
1383;DHT22;685;47.196;11.880;2023-06-05T07:29:29;16.40;99.90
1383;DHT22;685;47.196;11.880;2023-06-05T07:31:57;16.40;99.90
1383;DHT22;685;47.196;11.880;2023-06-05T07:34:25;16.50;99.90
1383;DHT22;685;47.196;11.880;2023-06-05T07:36:53;16.50;99.90
1383;DHT22;685;47.196;11.880;2023-06-05T07:39:22;16.50;99.90
1383;DHT22;685;47.196;11.880;2023-06-05T07:41:49;16.50;99.90
1383;DHT22;685;47.196;11.880;2023-06-05T07:44:18;16.60;99.90
1383;DHT22;685;47.196;11.880;2023-06-05T07:46:47;16.70;99.90
1383;DHT22;685;47.196;11.880;2023-06-05T07:49:15;16.70;99.90
1383;DHT22;685;47.196;11.880;2023-06-05T07:51:42;16.80;99.90
1383;DHT22;685;47.196;11.880;2023-06-05T07:54:10;16.80;99.90
1383;DHT22;685;47.196;11.880;2023-06-05T07:56:39;16.80;99.90
1383;DHT22;685;47.196;11.880;2023-06-05T07:59:07;16.80;99.90
1383;DHT22;685;47.196;11.880;2023-06-05T08:01:35;16.80;99.90
1383;DHT22;685;47.196;11.880;2023-06-05T08:04:03;16.80;99.90
1383;DHT22;685;47.196;11.880;2023-06-05T08:06:30;16.70;99.90
1383;DHT22;685;47.196;11.880;2023-06-05T08:08:58;16.60;99.90
1383;DHT22;685;47.196;11.880;2023-06-05T08:11:25;16.60;99.90
1383;DHT22;685;47.196;11.880;2023-06-05T08:13:55;16.70;99.90
1383;DHT22;685;47.196;11.880;2023-06-05T08:16:22;16.70;99.90
1383;DHT22;685;47.196;11.880;2023-06-05T08:18:49;16.80;99.90
1383;DHT22;685;47.196;11.880;2023-06-05T08:21:16;16.80;99.90
1383;DHT22;685;47.196;11.880;2023-06-05T08:23:43;16.60;99.90
1383;DHT22;685;47.196;11.880;2023-06-05T08:26:09;16.60;99.90
1383;DHT22;685;47.196;11.880;2023-06-05T08:28:38;16.60;99.90
1383;DHT22;685;47.196;11.880;2023-06-05T08:31:06;16.70;99.90
1383;DHT22;685;47.196;11.880;2023-06-05T08:33:34;16.70;99.90
1383;DHT22;685;47.196;11.880;2023-06-05T08:36:01;16.70;99.90
1383;DHT22;685;47.196;11.880;2023-06-05T08:38:28;16.70;99.90
1383;DHT22;685;47.196;11.880;2023-06-05T08:41:00;16.80;99.90
1383;DHT22;685;47.196;11.880;2023-06-05T08:43:27;16.80;99.90
1383;DHT22;685;47.196;11.880;2023-06-05T08:45:55;16.90;99.90
1383;DHT22;685;47.196;11.880;2023-06-05T08:48:24;16.80;99.90
1383;DHT22;685;47.196;11.880;2023-06-05T08:50:51;16.90;99.90
1383;DHT22;685;47.196;11.880;2023-06-05T08:53:21;16.90;99.90
1383;DHT22;685;47.196;11.880;2023-06-05T08:55:54;16.90;99.90
1383;DHT22;685;47.196;11.880;2023-06-05T08:58:21;17.00;99.90
1383;DHT22;685;47.196;11.880;2023-06-05T09:00:48;17.00;99.90
1383;DHT22;685;47.196;11.880;2023-06-05T09:03:16;17.00;99.90
1383;DHT22;685;47.196;11.880;2023-06-05T09:05:47;17.00;99.90
1383;DHT22;685;47.196;11.880;2023-06-05T09:08:14;17.00;99.90
1383;DHT22;685;47.196;11.880;2023-06-05T09:10:42;17.10;99.90
1383;DHT22;685;47.196;11.880;2023-06-05T09:13:09;17.10;99.90
1383;DHT22;685;47.196;11.880;2023-06-05T09:15:36;17.10;99.90
1383;DHT22;685;47.196;11.880;2023-06-05T09:18:05;17.20;99.90
1383;DHT22;685;47.196;11.880;2023-06-05T09:20:34;17.10;99.90
1383;DHT22;685;47.196;11.880;2023-06-05T09:23:04;17.10;99.90
1383;DHT22;685;47.196;11.880;2023-06-05T09:25:45;17.10;99.90
1383;DHT22;685;47.196;11.880;2023-06-05T09:28:15;17.20;99.90
1383;DHT22;685;47.196;11.880;2023-06-05T09:31:00;17.30;99.90
1383;DHT22;685;47.196;11.880;2023-06-05T09:33:28;17.30;99.90
1383;DHT22;685;47.196;11.880;2023-06-05T09:36:03;17.40;99.90
1383;DHT22;685;47.196;11.880;2023-06-05T09:38:32;17.40;99.90
1383;DHT22;685;47.196;11.880;2023-06-05T09:41:03;17.50;99.90
1383;DHT22;685;47.196;11.880;2023-06-05T09:43:31;17.40;99.90
1383;DHT22;685;47.196;11.880;2023-06-05T09:45:58;17.50;99.90
1383;DHT22;685;47.196;11.880;2023-06-05T09:48:25;17.60;99.90
1383;DHT22;685;47.196;11.880;2023-06-05T09:50:53;17.60;99.90
1383;DHT22;685;47.196;11.880;2023-06-05T09:53:20;17.60;99.90
1383;DHT22;685;47.196;11.880;2023-06-05T09:55:50;17.60;99.90
1383;DHT22;685;47.196;11.880;2023-06-05T09:58:17;17.60;99.90
1383;DHT22;685;47.196;11.880;2023-06-05T10:00:46;17.60;99.90
1383;DHT22;685;47.196;11.880;2023-06-05T10:03:15;17.70;99.90
1383;DHT22;685;47.196;11.880;2023-06-05T10:05:44;17.60;99.90
1383;DHT22;685;47.196;11.880;2023-06-05T10:08:12;17.70;99.90
1383;DHT22;685;47.196;11.880;2023-06-05T10:10:40;17.70;99.90
1383;DHT22;685;47.196;11.880;2023-06-05T10:13:09;17.80;99.90
1383;DHT22;685;47.196;11.880;2023-06-05T10:15:38;17.80;99.90
1383;DHT22;685;47.196;11.880;2023-06-05T10:18:06;17.80;99.90
1383;DHT22;685;47.196;11.880;2023-06-05T10:20:35;17.80;99.90
1383;DHT22;685;47.196;11.880;2023-06-05T10:23:04;17.70;99.90
1383;DHT22;685;47.196;11.880;2023-06-05T10:25:33;17.60;99.90
1383;DHT22;685;47.196;11.880;2023-06-05T10:28:33;17.70;99.90
1383;DHT22;685;47.196;11.880;2023-06-05T10:31:19;17.70;99.90
1383;DHT22;685;47.196;11.880;2023-06-05T10:34:07;17.60;99.90
1383;DHT22;685;47.196;11.880;2023-06-05T10:37:01;17.60;99.90
1383;DHT22;685;47.196;11.880;2023-06-05T10:39:31;17.60;99.90
1383;DHT22;685;47.196;11.880;2023-06-05T10:42:00;17.60;99.90
1383;DHT22;685;47.196;11.880;2023-06-05T10:44:41;17.50;99.90
1383;DHT22;685;47.196;11.880;2023-06-05T10:50:26;17.60;99.90
1383;DHT22;685;47.196;11.880;2023-06-05T10:52:55;17.50;99.90
1383;DHT22;685;47.196;11.880;2023-06-05T10:55:24;17.50;99.90
1383;DHT22;685;47.196;11.880;2023-06-05T10:58:04;17.60;99.90
1383;DHT22;685;47.196;11.880;2023-06-05T11:00:34;17.60;99.90
1383;DHT22;685;47.196;11.880;2023-06-05T11:03:01;17.60;99.90
1383;DHT22;685;47.196;11.880;2023-06-05T11:05:28;17.70;99.90
1383;DHT22;685;47.196;11.880;2023-06-05T11:08:12;17.70;99.90
1383;DHT22;685;47.196;11.880;2023-06-05T11:11:03;17.80;99.90
1383;DHT22;685;47.196;11.880;2023-06-05T11:13:52;17.90;99.90
1383;DHT22;685;47.196;11.880;2023-06-05T11:16:28;18.00;99.90
1383;DHT22;685;47.196;11.880;2023-06-05T11:22:08;18.00;99.90
1383;DHT22;685;47.196;11.880;2023-06-05T11:24:36;18.00;99.90
1383;DHT22;685;47.196;11.880;2023-06-05T11:27:04;18.00;99.90
1383;DHT22;685;47.196;11.880;2023-06-05T11:29:32;18.10;99.90
1383;DHT22;685;47.196;11.880;2023-06-05T11:32:10;18.10;99.90
1383;DHT22;685;47.196;11.880;2023-06-05T11:34:38;18.10;99.90
1383;DHT22;685;47.196;11.880;2023-06-05T11:37:16;17.90;99.90
1383;DHT22;685;47.196;11.880;2023-06-05T11:39:44;18.00;99.90
1383;DHT22;685;47.196;11.880;2023-06-05T11:42:11;17.90;99.90
1383;DHT22;685;47.196;11.880;2023-06-05T11:44:38;17.90;99.90
1383;DHT22;685;47.196;11.880;2023-06-05T11:47:06;17.90;99.90
1383;DHT22;685;47.196;11.880;2023-06-05T11:49:33;18.00;99.90
1383;DHT22;685;47.196;11.880;2023-06-05T11:52:01;18.00;99.90
1383;DHT22;685;47.196;11.880;2023-06-05T11:54:30;18.00;99.90
1383;DHT22;685;47.196;11.880;2023-06-05T11:57:01;18.00;99.90
1383;DHT22;685;47.196;11.880;2023-06-05T11:59:34;18.00;99.90
1383;DHT22;685;47.196;11.880;2023-06-05T12:02:02;18.00;99.90
1383;DHT22;685;47.196;11.880;2023-06-05T12:04:30;18.00;99.90
1383;DHT22;685;47.196;11.880;2023-06-05T12:06:58;17.90;99.90
1383;DHT22;685;47.196;11.880;2023-06-05T12:09:25;17.90;99.90
1383;DHT22;685;47.196;11.880;2023-06-05T12:11:52;17.90;99.90
1383;DHT22;685;47.196;11.880;2023-06-05T12:14:30;17.80;99.90
1383;DHT22;685;47.196;11.880;2023-06-05T12:16:57;17.80;99.90
1383;DHT22;685;47.196;11.880;2023-06-05T12:19:24;17.80;99.90
1383;DHT22;685;47.196;11.880;2023-06-05T12:22:02;17.60;99.90
1383;DHT22;685;47.196;11.880;2023-06-05T12:24:30;17.60;99.90
1383;DHT22;685;47.196;11.880;2023-06-05T12:26:59;17.70;99.90
1383;DHT22;685;47.196;11.880;2023-06-05T12:29:27;17.60;99.90
1383;DHT22;685;47.196;11.880;2023-06-05T12:31:55;17.60;99.90
1383;DHT22;685;47.196;11.880;2023-06-05T12:34:38;17.60;99.90
1383;DHT22;685;47.196;11.880;2023-06-05T12:37:08;17.60;99.90
1383;DHT22;685;47.196;11.880;2023-06-05T12:39:35;17.60;99.90
1383;DHT22;685;47.196;11.880;2023-06-05T12:42:02;17.50;99.90
1383;DHT22;685;47.196;11.880;2023-06-05T12:44:29;17.60;99.90
1383;DHT22;685;47.196;11.880;2023-06-05T12:46:56;17.60;99.90
1383;DHT22;685;47.196;11.880;2023-06-05T12:49:23;17.60;99.90
1383;DHT22;685;47.196;11.880;2023-06-05T12:51:50;17.60;99.90
1383;DHT22;685;47.196;11.880;2023-06-05T12:54:19;17.60;99.90
1383;DHT22;685;47.196;11.880;2023-06-05T12:56:46;17.60;99.90
1383;DHT22;685;47.196;11.880;2023-06-05T12:59:14;17.70;99.90
1383;DHT22;685;47.196;11.880;2023-06-05T13:01:41;17.70;99.90
1383;DHT22;685;47.196;11.880;2023-06-05T13:04:08;17.60;99.90
1383;DHT22;685;47.196;11.880;2023-06-05T13:06:35;17.60;99.90
1383;DHT22;685;47.196;11.880;2023-06-05T13:09:03;17.60;99.90
1383;DHT22;685;47.196;11.880;2023-06-05T13:11:31;17.70;99.90
1383;DHT22;685;47.196;11.880;2023-06-05T13:13:58;17.80;99.90
1383;DHT22;685;47.196;11.880;2023-06-05T13:16:26;17.80;99.90
1383;DHT22;685;47.196;11.880;2023-06-05T13:18:53;18.00;99.90
1383;DHT22;685;47.196;11.880;2023-06-05T13:21:20;18.00;99.90
1383;DHT22;685;47.196;11.880;2023-06-05T13:23:47;17.90;99.90
1383;DHT22;685;47.196;11.880;2023-06-05T13:26:13;17.90;99.90
1383;DHT22;685;47.196;11.880;2023-06-05T13:28:42;18.00;99.90
1383;DHT22;685;47.196;11.880;2023-06-05T13:31:10;18.00;99.90
1383;DHT22;685;47.196;11.880;2023-06-05T13:33:38;18.00;99.90
1383;DHT22;685;47.196;11.880;2023-06-05T13:36:06;18.10;99.90
1383;DHT22;685;47.196;11.880;2023-06-05T13:38:34;18.20;99.90
1383;DHT22;685;47.196;11.880;2023-06-05T13:41:03;18.30;99.90
1383;DHT22;685;47.196;11.880;2023-06-05T13:43:31;18.30;99.90
1383;DHT22;685;47.196;11.880;2023-06-05T13:46:01;18.30;99.90
1383;DHT22;685;47.196;11.880;2023-06-05T13:48:29;18.30;99.90
1383;DHT22;685;47.196;11.880;2023-06-05T13:50:56;18.30;99.90
1383;DHT22;685;47.196;11.880;2023-06-05T13:53:23;18.30;99.90
1383;DHT22;685;47.196;11.880;2023-06-05T13:55:50;18.40;99.90
1383;DHT22;685;47.196;11.880;2023-06-05T13:58:17;18.40;99.90
1383;DHT22;685;47.196;11.880;2023-06-05T14:00:44;18.50;99.90
1383;DHT22;685;47.196;11.880;2023-06-05T14:03:12;18.60;99.90
1383;DHT22;685;47.196;11.880;2023-06-05T14:05:39;18.70;99.90
1383;DHT22;685;47.196;11.880;2023-06-05T14:08:06;18.80;99.90
1383;DHT22;685;47.196;11.880;2023-06-05T14:10:33;18.90;99.90
1383;DHT22;685;47.196;11.880;2023-06-05T14:13:02;18.90;99.90
1383;DHT22;685;47.196;11.880;2023-06-05T14:15:30;19.00;99.90
1383;DHT22;685;47.196;11.880;2023-06-05T14:17:59;18.90;99.90
1383;DHT22;685;47.196;11.880;2023-06-05T14:20:28;18.90;99.90
1383;DHT22;685;47.196;11.880;2023-06-05T14:22:56;18.80;99.90
1383;DHT22;685;47.196;11.880;2023-06-05T14:25:23;18.50;99.90
1383;DHT22;685;47.196;11.880;2023-06-05T14:27:53;18.10;99.90
1383;DHT22;685;47.196;11.880;2023-06-05T14:30:20;17.80;99.90
1383;DHT22;685;47.196;11.880;2023-06-05T14:32:47;17.60;99.90
1383;DHT22;685;47.196;11.880;2023-06-05T14:35:14;17.50;99.90
1383;DHT22;685;47.196;11.880;2023-06-05T14:37:43;17.40;99.90
1383;DHT22;685;47.196;11.880;2023-06-05T14:40:10;17.40;99.90
1383;DHT22;685;47.196;11.880;2023-06-05T14:42:37;17.30;99.90
1383;DHT22;685;47.196;11.880;2023-06-05T14:45:06;17.40;99.90
1383;DHT22;685;47.196;11.880;2023-06-05T14:47:33;17.30;99.90
1383;DHT22;685;47.196;11.880;2023-06-05T14:50:00;17.10;99.90
1383;DHT22;685;47.196;11.880;2023-06-05T14:52:27;16.90;99.90
1383;DHT22;685;47.196;11.880;2023-06-05T14:54:55;16.70;99.90
1383;DHT22;685;47.196;11.880;2023-06-05T14:57:22;16.50;99.90
1383;DHT22;685;47.196;11.880;2023-06-05T14:59:49;16.50;99.90
1383;DHT22;685;47.196;11.880;2023-06-05T15:02:16;16.50;99.90
1383;DHT22;685;47.196;11.880;2023-06-05T15:07:18;16.70;99.90
1383;DHT22;685;47.196;11.880;2023-06-05T15:09:46;16.80;99.90
1383;DHT22;685;47.196;11.880;2023-06-05T15:12:14;16.90;99.90
1383;DHT22;685;47.196;11.880;2023-06-05T15:14:41;17.00;99.90
1383;DHT22;685;47.196;11.880;2023-06-05T15:17:08;16.90;99.90
1383;DHT22;685;47.196;11.880;2023-06-05T15:19:35;16.90;99.90
1383;DHT22;685;47.196;11.880;2023-06-05T15:22:03;16.90;99.90
1383;DHT22;685;47.196;11.880;2023-06-05T15:24:29;16.90;99.90
1383;DHT22;685;47.196;11.880;2023-06-05T15:26:56;16.80;99.90
1383;DHT22;685;47.196;11.880;2023-06-05T15:29:25;16.80;99.90
1383;DHT22;685;47.196;11.880;2023-06-05T15:31:52;16.90;99.90
1383;DHT22;685;47.196;11.880;2023-06-05T15:34:19;16.90;99.90
1383;DHT22;685;47.196;11.880;2023-06-05T15:36:46;16.90;99.90
1383;DHT22;685;47.196;11.880;2023-06-05T15:39:13;16.80;99.90
1383;DHT22;685;47.196;11.880;2023-06-05T15:41:40;16.60;99.90
1383;DHT22;685;47.196;11.880;2023-06-05T15:44:07;16.50;99.90
1383;DHT22;685;47.196;11.880;2023-06-05T15:46:36;16.60;99.90
1383;DHT22;685;47.196;11.880;2023-06-05T15:49:03;16.70;99.90
1383;DHT22;685;47.196;11.880;2023-06-05T15:51:30;16.80;99.90
1383;DHT22;685;47.196;11.880;2023-06-05T15:53:57;16.90;99.90
1383;DHT22;685;47.196;11.880;2023-06-05T15:56:24;16.90;99.90
1383;DHT22;685;47.196;11.880;2023-06-05T15:58:52;17.00;99.90
1383;DHT22;685;47.196;11.880;2023-06-05T16:01:19;16.90;99.90
1383;DHT22;685;47.196;11.880;2023-06-05T16:03:47;16.90;99.90
1383;DHT22;685;47.196;11.880;2023-06-05T16:06:14;16.90;99.90
1383;DHT22;685;47.196;11.880;2023-06-05T16:08:41;16.90;99.90
1383;DHT22;685;47.196;11.880;2023-06-05T16:11:08;16.80;99.90
1383;DHT22;685;47.196;11.880;2023-06-05T16:13:36;16.60;99.90
1383;DHT22;685;47.196;11.880;2023-06-05T16:16:03;16.30;99.90
1383;DHT22;685;47.196;11.880;2023-06-05T16:18:30;16.20;99.90
1383;DHT22;685;47.196;11.880;2023-06-05T16:20:59;16.10;99.90